-1°C Temp
-2°C Dewpoint
% Humidity
Temperature
8 KM/H
5 MPH
4 KTS
340°
North North
West

Wind Speed
Mostly Cloudy
Conditions
Pressure 1024.92 (hPa) - 30.27 (in)
Visibility 0.0 (mi) - 0.0 (km)

Current Conditions
EHBK
Location 6km (3.2mi)
Metar :EHBK 070855Z AUTO 34004KT 0100 R21/0200N FZFG BKN000 M01/M02 Q1025 BECMG 4000 BR
Sun 7th March 09:55 am

Airport
  Metar Aviation API Data Provided by https://www.checkwx.com/ PHP scripts by weather34.com ©2021